Meteo Giornale » Osservazioni meteo Stati Uniti (USA) » Lexington Blue Grass
ore: 01:54 - Osservazioni Meteo Lexington Blue Grass
Lat. 38° 2' N Lon. 84° 36' W Alt. 298 metri s.l.m.
23 °C
Sereno
Temp. 24 Ore
22 °C
33 °C
Sud
9.3 Km/h
Dew point 21 °C
Umidità 88 %
Visibilità 10 Km
Il sole sorge alle ore 07:08
Il sole tramonta alle ore 20:08
| Data e Ora | Cielo e Fenomeni | T °C | DP °C | Um. % | Pres. hPa | Vis. km | Vento km/h | |
|---|---|---|---|---|---|---|---|---|
| Oggi h: 01:54 | Sereno | 23 | 21 | 88 | 1019 | 10 | S 9.3 | |
| Oggi h: 00:54 | Sereno | 23 | 21 | 88 | 1019 | 10 | S/SE 7.4 | |
| Ieri h: 23:54 | Sereno | 24 | 21 | 83 | 1019 | 10 | N 5.5 | |
| Ieri h: 22:54 | Sereno | 26 | 21 | 73 | 1019 | 10 | S/SE 7.4 | |
| Ieri h: 21:54 | Sereno | 26 | 21 | 73 | 1019 | 10 | S 7.4 | |
| Ieri h: 20:54 | Sereno | 26 | 22 | 78 | 1018 | 10 | S 7.4 | |
| Ieri h: 19:54 | Sereno | 29 | 21 | 62 | 1018 | 10 | N 5.5 | |
| Ieri h: 18:54 | Sereno | 32 | 20 | 49 | 1018 | 10 | N 5.5 | |
| Ieri h: 17:54 | Sereno | 33 | 20 | 46 | 1019 | 10 | SO 13 | |
| Ieri h: 16:54 | Poco Nuvoloso | 33 | 20 | 46 | 1019 | 10 | SO 9.3 | |
| Ieri h: 15:54 | Poco Nuvoloso | 33 | 21 | 49 | 1020 | 10 | O 13 | |
| Ieri h: 14:54 | Sereno | 33 | 21 | 49 | 1020 | 10 | SO 16.7 | |
| Ieri h: 13:54 | Poco Nuvoloso | 33 | 21 | 49 | 1021 | 10 | O/SO 14.8 | |
| Ieri h: 12:54 | Sereno | 32 | 22 | 55 | 1021 | 10 | O 14.8 | |
| Ieri h: 11:54 | Sereno | 31 | 22 | 58 | 1021 | 10 | SO 16.7 | |
| Ieri h: 10:54 | Sereno | 29 | 22 | 66 | 1021 | 10 | O/SO 13 | |
| Ieri h: 09:54 | Sereno | 27 | 22 | 74 | 1021 | 10 | SO 9.3 | |
| Ieri h: 08:54 | Sereno | 25 | 21 | 78 | 1021 | 10 | S/SO 11.1 | |
| Ieri h: 07:54 | Sereno | 22 | 20 | 88 | 1020 | 10 | S 9.3 | |
| Ieri h: 06:54 | Sereno | 23 | 20 | 83 | 1020 | 10 | N 0 | |
| Ieri h: 05:54 | Sereno | 23 | 19 | 78 | 1019 | 10 | S 7.4 | |
| Ieri h: 04:54 | Sereno | 23 | 20 | 83 | 1019 | 10 | S 9.3 | |
| Ieri h: 03:54 | Sereno | 22 | 20 | 88 | 1019 | 10 | S/SE 9.3 | |
| Ieri h: 02:54 | Sereno | 23 | 20 | 83 | 1019 | 10 | S/SE 7.4 | |



